sensor_id;sensor_type;location;lat;lon;timestamp;temperature;humidity
69208;SHT31;56321;47.662;8.878;2023-03-31T00:00:16;12.39;68.66
69208;SHT31;56321;47.662;8.878;2023-03-31T00:02:42;12.41;68.65
69208;SHT31;56321;47.662;8.878;2023-03-31T00:05:08;12.41;68.76
69208;SHT31;56321;47.662;8.878;2023-03-31T00:07:34;12.41;68.34
69208;SHT31;56321;47.662;8.878;2023-03-31T00:10:03;12.41;68.43
69208;SHT31;56321;47.662;8.878;2023-03-31T00:12:29;12.44;68.07
69208;SHT31;56321;47.662;8.878;2023-03-31T00:14:55;12.45;68.36
69208;SHT31;56321;47.662;8.878;2023-03-31T00:17:20;12.48;68.46
69208;SHT31;56321;47.662;8.878;2023-03-31T00:19:45;12.48;68.52
69208;SHT31;56321;47.662;8.878;2023-03-31T00:22:16;12.50;68.28
69208;SHT31;56321;47.662;8.878;2023-03-31T00:24:51;12.48;68.12
69208;SHT31;56321;47.662;8.878;2023-03-31T00:27:17;12.50;68.36
69208;SHT31;56321;47.662;8.878;2023-03-31T00:29:42;12.50;68.69
69208;SHT31;56321;47.662;8.878;2023-03-31T00:32:10;12.52;68.56
69208;SHT31;56321;47.662;8.878;2023-03-31T00:34:35;12.52;68.44
69208;SHT31;56321;47.662;8.878;2023-03-31T00:37:02;12.50;68.59
69208;SHT31;56321;47.662;8.878;2023-03-31T00:39:28;12.53;68.66
69208;SHT31;56321;47.662;8.878;2023-03-31T00:42:02;12.56;68.63
69208;SHT31;56321;47.662;8.878;2023-03-31T00:44:29;12.56;68.48
69208;SHT31;56321;47.662;8.878;2023-03-31T00:47:12;12.56;67.94
69208;SHT31;56321;47.662;8.878;2023-03-31T00:49:49;12.57;68.59
69208;SHT31;56321;47.662;8.878;2023-03-31T00:52:25;12.55;68.80
69208;SHT31;56321;47.662;8.878;2023-03-31T00:55:01;12.57;68.12
69208;SHT31;56321;47.662;8.878;2023-03-31T00:57:31;12.66;68.39
69208;SHT31;56321;47.662;8.878;2023-03-31T01:00:05;12.67;68.42
69208;SHT31;56321;47.662;8.878;2023-03-31T01:02:45;12.67;69.49
69208;SHT31;56321;47.662;8.878;2023-03-31T01:05:18;12.69;69.73
69208;SHT31;56321;47.662;8.878;2023-03-31T01:07:47;12.69;70.55
69208;SHT31;56321;47.662;8.878;2023-03-31T01:10:14;12.66;70.98
69208;SHT31;56321;47.662;8.878;2023-03-31T01:12:43;12.62;71.30
69208;SHT31;56321;47.662;8.878;2023-03-31T01:15:10;12.60;71.34
69208;SHT31;56321;47.662;8.878;2023-03-31T01:17:35;12.59;71.53
69208;SHT31;56321;47.662;8.878;2023-03-31T01:20:24;12.56;72.05
69208;SHT31;56321;47.662;8.878;2023-03-31T01:23:07;12.56;72.47
69208;SHT31;56321;47.662;8.878;2023-03-31T01:25:51;12.57;72.46
69208;SHT31;56321;47.662;8.878;2023-03-31T01:43:02;12.39;74.38
69208;SHT31;56321;47.662;8.878;2023-03-31T01:45:44;12.36;73.93
69208;SHT31;56321;47.662;8.878;2023-03-31T01:48:19;12.31;74.04
69208;SHT31;56321;47.662;8.878;2023-03-31T01:53:20;12.28;74.38
69208;SHT31;56321;47.662;8.878;2023-03-31T01:55:59;12.28;74.45
69208;SHT31;56321;47.662;8.878;2023-03-31T01:58:52;12.25;75.15
69208;SHT31;56321;47.662;8.878;2023-03-31T02:01:19;12.25;74.44
69208;SHT31;56321;47.662;8.878;2023-03-31T02:04:16;12.25;74.97
69208;SHT31;56321;47.662;8.878;2023-03-31T02:06:43;12.25;74.71
69208;SHT31;56321;47.662;8.878;2023-03-31T02:09:19;12.24;74.88
69208;SHT31;56321;47.662;8.878;2023-03-31T02:11:47;12.24;74.84
69208;SHT31;56321;47.662;8.878;2023-03-31T02:14:17;12.22;74.84
69208;SHT31;56321;47.662;8.878;2023-03-31T02:16:49;12.21;74.93
69208;SHT31;56321;47.662;8.878;2023-03-31T02:19:17;12.20;74.96
69208;SHT31;56321;47.662;8.878;2023-03-31T02:21:46;12.21;74.79
69208;SHT31;56321;47.662;8.878;2023-03-31T02:24:14;12.22;74.93
69208;SHT31;56321;47.662;8.878;2023-03-31T02:27:20;12.20;75.37
69208;SHT31;56321;47.662;8.878;2023-03-31T02:29:47;12.20;75.15
69208;SHT31;56321;47.662;8.878;2023-03-31T02:32:20;12.18;75.27
69208;SHT31;56321;47.662;8.878;2023-03-31T02:34:47;12.18;75.23
69208;SHT31;56321;47.662;8.878;2023-03-31T02:37:12;12.17;75.19
69208;SHT31;56321;47.662;8.878;2023-03-31T02:39:40;12.16;75.32
69208;SHT31;56321;47.662;8.878;2023-03-31T02:42:08;12.16;75.37
69208;SHT31;56321;47.662;8.878;2023-03-31T02:44:37;12.13;75.41
69208;SHT31;56321;47.662;8.878;2023-03-31T02:47:06;12.14;75.39
69208;SHT31;56321;47.662;8.878;2023-03-31T02:49:33;12.13;74.97
69208;SHT31;56321;47.662;8.878;2023-03-31T02:57:52;12.11;75.70
69208;SHT31;56321;47.662;8.878;2023-03-31T03:00:33;12.11;75.64
69208;SHT31;56321;47.662;8.878;2023-03-31T03:16:58;11.94;75.46
69208;SHT31;56321;47.662;8.878;2023-03-31T03:19:25;11.93;75.36
69208;SHT31;56321;47.662;8.878;2023-03-31T03:21:50;11.90;75.52
69208;SHT31;56321;47.662;8.878;2023-03-31T03:24:17;11.88;75.30
69208;SHT31;56321;47.662;8.878;2023-03-31T03:26:43;11.91;75.41
69208;SHT31;56321;47.662;8.878;2023-03-31T03:29:09;11.90;75.51
69208;SHT31;56321;47.662;8.878;2023-03-31T03:31:37;11.84;75.50
69208;SHT31;56321;47.662;8.878;2023-03-31T03:34:03;11.79;75.55
69208;SHT31;56321;47.662;8.878;2023-03-31T03:36:28;11.77;75.51
69208;SHT31;56321;47.662;8.878;2023-03-31T03:38:54;11.76;75.57
69208;SHT31;56321;47.662;8.878;2023-03-31T03:41:19;11.71;75.73
69208;SHT31;56321;47.662;8.878;2023-03-31T03:43:44;11.70;75.78
69208;SHT31;56321;47.662;8.878;2023-03-31T03:46:10;11.67;75.66
69208;SHT31;56321;47.662;8.878;2023-03-31T03:48:35;11.66;75.41
69208;SHT31;56321;47.662;8.878;2023-03-31T03:51:01;11.65;75.49
69208;SHT31;56321;47.662;8.878;2023-03-31T03:53:26;11.65;75.68
69208;SHT31;56321;47.662;8.878;2023-03-31T03:55:52;11.62;75.83
69208;SHT31;56321;47.662;8.878;2023-03-31T03:58:17;11.65;75.79
69208;SHT31;56321;47.662;8.878;2023-03-31T04:00:45;11.65;75.75
69208;SHT31;56321;47.662;8.878;2023-03-31T04:03:12;11.67;75.85
69208;SHT31;56321;47.662;8.878;2023-03-31T04:05:38;11.66;75.72
69208;SHT31;56321;47.662;8.878;2023-03-31T04:08:03;11.66;75.73
69208;SHT31;56321;47.662;8.878;2023-03-31T04:10:30;11.69;75.65
69208;SHT31;56321;47.662;8.878;2023-03-31T04:12:55;11.67;75.65
69208;SHT31;56321;47.662;8.878;2023-03-31T04:15:21;11.67;75.65
69208;SHT31;56321;47.662;8.878;2023-03-31T04:17:46;11.67;75.59
69208;SHT31;56321;47.662;8.878;2023-03-31T04:20:15;11.69;75.27
69208;SHT31;56321;47.662;8.878;2023-03-31T04:22:41;11.67;75.26
69208;SHT31;56321;47.662;8.878;2023-03-31T04:25:12;11.69;75.57
69208;SHT31;56321;47.662;8.878;2023-03-31T04:27:42;11.67;75.65
69208;SHT31;56321;47.662;8.878;2023-03-31T04:30:14;11.69;75.79
69208;SHT31;56321;47.662;8.878;2023-03-31T04:32:49;11.69;75.77
69208;SHT31;56321;47.662;8.878;2023-03-31T04:35:16;11.71;75.76
69208;SHT31;56321;47.662;8.878;2023-03-31T04:37:43;11.71;75.67
69208;SHT31;56321;47.662;8.878;2023-03-31T04:40:09;11.71;75.57
69208;SHT31;56321;47.662;8.878;2023-03-31T04:42:35;11.69;75.23
69208;SHT31;56321;47.662;8.878;2023-03-31T04:45:01;11.69;75.46
69208;SHT31;56321;47.662;8.878;2023-03-31T04:47:26;11.69;75.72
69208;SHT31;56321;47.662;8.878;2023-03-31T04:49:52;11.73;75.71
69208;SHT31;56321;47.662;8.878;2023-03-31T04:52:17;11.73;75.56
69208;SHT31;56321;47.662;8.878;2023-03-31T04:54:42;11.74;75.81
69208;SHT31;56321;47.662;8.878;2023-03-31T04:57:07;11.74;75.48
69208;SHT31;56321;47.662;8.878;2023-03-31T04:59:33;11.77;75.65
69208;SHT31;56321;47.662;8.878;2023-03-31T05:01:58;11.74;75.82
69208;SHT31;56321;47.662;8.878;2023-03-31T05:04:23;11.76;75.88
69208;SHT31;56321;47.662;8.878;2023-03-31T05:06:49;11.73;75.91
69208;SHT31;56321;47.662;8.878;2023-03-31T05:09:15;11.71;75.87
69208;SHT31;56321;47.662;8.878;2023-03-31T05:11:40;11.73;75.90
69208;SHT31;56321;47.662;8.878;2023-03-31T05:14:06;11.73;75.92
69208;SHT31;56321;47.662;8.878;2023-03-31T05:16:31;11.70;76.11
69208;SHT31;56321;47.662;8.878;2023-03-31T05:18:56;11.73;76.29
69208;SHT31;56321;47.662;8.878;2023-03-31T05:21:22;11.73;76.44
69208;SHT31;56321;47.662;8.878;2023-03-31T05:23:48;11.74;76.49
69208;SHT31;56321;47.662;8.878;2023-03-31T05:26:14;11.76;76.47
69208;SHT31;56321;47.662;8.878;2023-03-31T05:28:40;11.74;76.20
69208;SHT31;56321;47.662;8.878;2023-03-31T05:31:07;11.76;75.77
69208;SHT31;56321;47.662;8.878;2023-03-31T05:33:32;11.73;75.72
69208;SHT31;56321;47.662;8.878;2023-03-31T05:35:58;11.71;76.00
69208;SHT31;56321;47.662;8.878;2023-03-31T05:38:27;11.73;76.30
69208;SHT31;56321;47.662;8.878;2023-03-31T05:40:54;11.74;76.44
69208;SHT31;56321;47.662;8.878;2023-03-31T05:43:20;11.73;76.57
69208;SHT31;56321;47.662;8.878;2023-03-31T05:45:45;11.80;76.73
69208;SHT31;56321;47.662;8.878;2023-03-31T05:48:10;11.77;76.73
69208;SHT31;56321;47.662;8.878;2023-03-31T05:50:36;11.80;76.62
69208;SHT31;56321;47.662;8.878;2023-03-31T05:53:01;11.80;76.80
69208;SHT31;56321;47.662;8.878;2023-03-31T05:55:26;11.81;76.93
69208;SHT31;56321;47.662;8.878;2023-03-31T05:57:52;11.81;76.81
69208;SHT31;56321;47.662;8.878;2023-03-31T06:00:18;11.83;76.76
69208;SHT31;56321;47.662;8.878;2023-03-31T06:02:44;11.80;76.75
69208;SHT31;56321;47.662;8.878;2023-03-31T06:05:09;11.74;76.62
69208;SHT31;56321;47.662;8.878;2023-03-31T06:07:35;11.74;76.74
69208;SHT31;56321;47.662;8.878;2023-03-31T06:10:00;11.71;76.92
69208;SHT31;56321;47.662;8.878;2023-03-31T06:12:26;11.69;77.19
69208;SHT31;56321;47.662;8.878;2023-03-31T06:14:51;11.69;77.06
69208;SHT31;56321;47.662;8.878;2023-03-31T06:17:16;11.66;76.95
69208;SHT31;56321;47.662;8.878;2023-03-31T06:19:42;11.66;77.26
69208;SHT31;56321;47.662;8.878;2023-03-31T06:22:07;11.65;77.36
69208;SHT31;56321;47.662;8.878;2023-03-31T06:24:32;11.66;77.34
69208;SHT31;56321;47.662;8.878;2023-03-31T06:26:58;11.69;77.25
69208;SHT31;56321;47.662;8.878;2023-03-31T06:29:25;11.69;77.31
69208;SHT31;56321;47.662;8.878;2023-03-31T06:31:51;11.73;77.59
69208;SHT31;56321;47.662;8.878;2023-03-31T06:34:16;11.76;77.76
69208;SHT31;56321;47.662;8.878;2023-03-31T06:36:42;11.79;77.79
69208;SHT31;56321;47.662;8.878;2023-03-31T06:39:07;11.83;77.71
69208;SHT31;56321;47.662;8.878;2023-03-31T06:41:32;11.84;77.78
69208;SHT31;56321;47.662;8.878;2023-03-31T06:43:58;11.84;77.58
69208;SHT31;56321;47.662;8.878;2023-03-31T06:46:23;11.84;77.48
69208;SHT31;56321;47.662;8.878;2023-03-31T06:48:48;11.84;77.74
69208;SHT31;56321;47.662;8.878;2023-03-31T06:51:14;11.80;76.30
69208;SHT31;56321;47.662;8.878;2023-03-31T06:53:39;11.74;75.74
69208;SHT31;56321;47.662;8.878;2023-03-31T06:56:05;11.74;76.33
69208;SHT31;56321;47.662;8.878;2023-03-31T06:58:31;11.79;75.38
69208;SHT31;56321;47.662;8.878;2023-03-31T07:00:57;11.86;75.24
69208;SHT31;56321;47.662;8.878;2023-03-31T07:03:22;11.95;75.15
69208;SHT31;56321;47.662;8.878;2023-03-31T07:05:50;12.04;74.72
69208;SHT31;56321;47.662;8.878;2023-03-31T07:08:16;12.11;74.65
69208;SHT31;56321;47.662;8.878;2023-03-31T07:10:42;12.22;74.51
69208;SHT31;56321;47.662;8.878;2023-03-31T07:13:10;12.32;74.36
69208;SHT31;56321;47.662;8.878;2023-03-31T07:15:36;12.41;73.71
69208;SHT31;56321;47.662;8.878;2023-03-31T07:18:01;12.49;74.14
69208;SHT31;56321;47.662;8.878;2023-03-31T07:20:27;12.56;74.17
69208;SHT31;56321;47.662;8.878;2023-03-31T07:22:52;12.56;74.01
69208;SHT31;56321;47.662;8.878;2023-03-31T07:25:18;12.55;74.38
69208;SHT31;56321;47.662;8.878;2023-03-31T07:27:43;12.53;74.14
69208;SHT31;56321;47.662;8.878;2023-03-31T07:30:14;12.49;74.35
69208;SHT31;56321;47.662;8.878;2023-03-31T07:32:39;12.45;73.44
69208;SHT31;56321;47.662;8.878;2023-03-31T07:35:10;12.44;73.32
69208;SHT31;56321;47.662;8.878;2023-03-31T07:37:40;12.48;73.27
69208;SHT31;56321;47.662;8.878;2023-03-31T07:40:07;12.57;73.06
69208;SHT31;56321;47.662;8.878;2023-03-31T07:42:33;12.67;72.90
69208;SHT31;56321;47.662;8.878;2023-03-31T07:45:00;12.80;72.83
69208;SHT31;56321;47.662;8.878;2023-03-31T07:47:26;12.96;72.87
69208;SHT31;56321;47.662;8.878;2023-03-31T07:49:51;13.07;72.15
69208;SHT31;56321;47.662;8.878;2023-03-31T07:52:17;13.13;71.93
69208;SHT31;56321;47.662;8.878;2023-03-31T07:54:44;13.15;71.39
69208;SHT31;56321;47.662;8.878;2023-03-31T07:57:09;13.14;70.85
69208;SHT31;56321;47.662;8.878;2023-03-31T07:59:35;13.15;70.85
69208;SHT31;56321;47.662;8.878;2023-03-31T08:02:00;13.25;71.04
69208;SHT31;56321;47.662;8.878;2023-03-31T08:04:25;13.37;70.82
69208;SHT31;56321;47.662;8.878;2023-03-31T08:06:51;13.52;70.18
69208;SHT31;56321;47.662;8.878;2023-03-31T08:09:16;13.72;70.84
69208;SHT31;56321;47.662;8.878;2023-03-31T08:11:42;13.96;70.16
69208;SHT31;56321;47.662;8.878;2023-03-31T08:14:08;14.14;69.75
69208;SHT31;56321;47.662;8.878;2023-03-31T08:16:34;14.33;69.12
69208;SHT31;56321;47.662;8.878;2023-03-31T08:18:59;14.51;68.18
69208;SHT31;56321;47.662;8.878;2023-03-31T08:21:27;14.63;68.40
69208;SHT31;56321;47.662;8.878;2023-03-31T08:23:54;14.74;67.71
69208;SHT31;56321;47.662;8.878;2023-03-31T08:26:19;14.85;67.74
69208;SHT31;56321;47.662;8.878;2023-03-31T08:28:46;14.99;67.88
69208;SHT31;56321;47.662;8.878;2023-03-31T08:31:16;15.20;67.78
69208;SHT31;56321;47.662;8.878;2023-03-31T08:33:42;15.41;67.03
69208;SHT31;56321;47.662;8.878;2023-03-31T08:36:08;15.61;65.68
69208;SHT31;56321;47.662;8.878;2023-03-31T08:38:35;15.72;65.81
69208;SHT31;56321;47.662;8.878;2023-03-31T08:41:10;15.94;66.04
69208;SHT31;56321;47.662;8.878;2023-03-31T08:43:41;16.22;65.31
69208;SHT31;56321;47.662;8.878;2023-03-31T08:46:10;16.34;64.23
69208;SHT31;56321;47.662;8.878;2023-03-31T08:48:42;16.47;63.09
69208;SHT31;56321;47.662;8.878;2023-03-31T08:51:27;16.60;62.67
69208;SHT31;56321;47.662;8.878;2023-03-31T08:53:59;16.80;63.23
69208;SHT31;56321;47.662;8.878;2023-03-31T08:56:30;16.87;62.50
69208;SHT31;56321;47.662;8.878;2023-03-31T08:58:58;16.78;61.61
69208;SHT31;56321;47.662;8.878;2023-03-31T09:01:48;16.57;61.44
69208;SHT31;56321;47.662;8.878;2023-03-31T09:04:31;16.45;61.37
69208;SHT31;56321;47.662;8.878;2023-03-31T09:07:04;16.56;61.96
69208;SHT31;56321;47.662;8.878;2023-03-31T09:12:20;16.70;61.27
69208;SHT31;56321;47.662;8.878;2023-03-31T09:17:30;16.40;61.33
69208;SHT31;56321;47.662;8.878;2023-03-31T09:20:11;16.09;60.67
69208;SHT31;56321;47.662;8.878;2023-03-31T09:22:45;15.79;62.44
69208;SHT31;56321;47.662;8.878;2023-03-31T09:25:30;15.55;64.61
69208;SHT31;56321;47.662;8.878;2023-03-31T09:27:58;15.40;64.72
69208;SHT31;56321;47.662;8.878;2023-03-31T09:30:33;15.16;64.65
69208;SHT31;56321;47.662;8.878;2023-03-31T09:33:24;14.93;65.66
69208;SHT31;56321;47.662;8.878;2023-03-31T09:35:52;14.71;66.71
69208;SHT31;56321;47.662;8.878;2023-03-31T09:38:17;14.60;67.20
69208;SHT31;56321;47.662;8.878;2023-03-31T09:40:43;14.45;66.66
69208;SHT31;56321;47.662;8.878;2023-03-31T09:43:26;14.28;67.53
69208;SHT31;56321;47.662;8.878;2023-03-31T09:45:52;14.17;67.59
69208;SHT31;56321;47.662;8.878;2023-03-31T09:48:22;14.03;67.51
69208;SHT31;56321;47.662;8.878;2023-03-31T09:51:01;13.90;67.98
69208;SHT31;56321;47.662;8.878;2023-03-31T09:53:39;13.79;68.24
69208;SHT31;56321;47.662;8.878;2023-03-31T09:56:08;13.72;68.14
69208;SHT31;56321;47.662;8.878;2023-03-31T09:58:43;13.68;68.36
69208;SHT31;56321;47.662;8.878;2023-03-31T10:01:11;13.61;68.58
69208;SHT31;56321;47.662;8.878;2023-03-31T10:03:49;13.57;68.98
69208;SHT31;56321;47.662;8.878;2023-03-31T10:06:16;13.54;68.95
69208;SHT31;56321;47.662;8.878;2023-03-31T10:08:53;13.41;68.59
69208;SHT31;56321;47.662;8.878;2023-03-31T10:11:20;13.34;69.23
69208;SHT31;56321;47.662;8.878;2023-03-31T10:14:04;13.42;69.47
69208;SHT31;56321;47.662;8.878;2023-03-31T10:16:47;14.38;68.73
69208;SHT31;56321;47.662;8.878;2023-03-31T10:19:23;14.88;66.76
69208;SHT31;56321;47.662;8.878;2023-03-31T10:24:48;18.32;62.96
69208;SHT31;56321;47.662;8.878;2023-03-31T10:27:23;20.40;56.85
69208;SHT31;56321;47.662;8.878;2023-03-31T10:29:54;21.20;55.44
69208;SHT31;56321;47.662;8.878;2023-03-31T10:32:30;21.58;52.13
69208;SHT31;56321;47.662;8.878;2023-03-31T10:34:58;21.51;52.86
69208;SHT31;56321;47.662;8.878;2023-03-31T10:37:27;20.88;52.65
69208;SHT31;56321;47.662;8.878;2023-03-31T10:40:03;19.90;53.31
69208;SHT31;56321;47.662;8.878;2023-03-31T10:42:31;19.03;54.83
69208;SHT31;56321;47.662;8.878;2023-03-31T10:45:28;18.09;54.25
69208;SHT31;56321;47.662;8.878;2023-03-31T10:47:55;17.35;57.08
69208;SHT31;56321;47.662;8.878;2023-03-31T10:50:33;16.68;58.42
69208;SHT31;56321;47.662;8.878;2023-03-31T10:53:08;16.22;59.84
69208;SHT31;56321;47.662;8.878;2023-03-31T10:55:40;15.84;60.58
69208;SHT31;56321;47.662;8.878;2023-03-31T11:04:59;14.92;64.77
69208;SHT31;56321;47.662;8.878;2023-03-31T11:10:49;14.49;64.09
69208;SHT31;56321;47.662;8.878;2023-03-31T11:24:04;14.13;64.87
69208;SHT31;56321;47.662;8.878;2023-03-31T11:29:37;14.03;64.10
69208;SHT31;56321;47.662;8.878;2023-03-31T11:40:38;14.02;64.03
69208;SHT31;56321;47.662;8.878;2023-03-31T11:46:19;16.67;59.06
69208;SHT31;56321;47.662;8.878;2023-03-31T11:48:53;18.22;55.73
69208;SHT31;56321;47.662;8.878;2023-03-31T11:51:41;18.80;52.31
69208;SHT31;56321;47.662;8.878;2023-03-31T11:54:16;19.11;50.83
69208;SHT31;56321;47.662;8.878;2023-03-31T11:56:43;19.58;51.41
69208;SHT31;56321;47.662;8.878;2023-03-31T11:59:14;19.86;49.42
69208;SHT31;56321;47.662;8.878;2023-03-31T12:04:10;20.48;48.82
69208;SHT31;56321;47.662;8.878;2023-03-31T12:06:41;20.65;49.38
69208;SHT31;56321;47.662;8.878;2023-03-31T12:09:24;20.76;47.70
69208;SHT31;56321;47.662;8.878;2023-03-31T12:11:56;20.75;47.04
69208;SHT31;56321;47.662;8.878;2023-03-31T12:14:33;20.82;46.38
69208;SHT31;56321;47.662;8.878;2023-03-31T12:17:12;20.89;45.12
69208;SHT31;56321;47.662;8.878;2023-03-31T12:22:25;20.85;41.36
69208;SHT31;56321;47.662;8.878;2023-03-31T12:24:52;20.48;40.08
69208;SHT31;56321;47.662;8.878;2023-03-31T12:27:40;19.80;37.05
69208;SHT31;56321;47.662;8.878;2023-03-31T12:30:29;18.92;38.02
69208;SHT31;56321;47.662;8.878;2023-03-31T12:32:59;18.27;40.62
69208;SHT31;56321;47.662;8.878;2023-03-31T12:38:40;16.75;45.40
69208;SHT31;56321;47.662;8.878;2023-03-31T12:49:27;15.47;51.76
69208;SHT31;56321;47.662;8.878;2023-03-31T12:54:46;15.84;51.22
69208;SHT31;56321;47.662;8.878;2023-03-31T12:57:20;16.05;50.77
69208;SHT31;56321;47.662;8.878;2023-03-31T13:02:37;16.25;50.56
69208;SHT31;56321;47.662;8.878;2023-03-31T13:08:03;16.61;48.84
69208;SHT31;56321;47.662;8.878;2023-03-31T13:10:30;16.77;48.17
69208;SHT31;56321;47.662;8.878;2023-03-31T13:13:25;16.78;45.54
69208;SHT31;56321;47.662;8.878;2023-03-31T13:15:55;16.81;47.91
69208;SHT31;56321;47.662;8.878;2023-03-31T13:18:21;16.88;47.39
69208;SHT31;56321;47.662;8.878;2023-03-31T13:21:02;16.96;47.21
69208;SHT31;56321;47.662;8.878;2023-03-31T13:23:33;17.08;47.38
69208;SHT31;56321;47.662;8.878;2023-03-31T13:25:58;17.14;46.59
69208;SHT31;56321;47.662;8.878;2023-03-31T13:31:01;17.04;45.08
69208;SHT31;56321;47.662;8.878;2023-03-31T13:33:44;16.92;45.61
69208;SHT31;56321;47.662;8.878;2023-03-31T13:36:29;16.63;45.79
69208;SHT31;56321;47.662;8.878;2023-03-31T13:40:07;16.45;45.77
69208;SHT31;56321;47.662;8.878;2023-03-31T13:42:30;16.15;46.75
69208;SHT31;56321;47.662;8.878;2023-03-31T13:58:47;15.70;49.02
69208;SHT31;56321;47.662;8.878;2023-03-31T14:04:29;15.62;49.85
69208;SHT31;56321;47.662;8.878;2023-03-31T14:07:08;15.61;50.15
69208;SHT31;56321;47.662;8.878;2023-03-31T14:09:36;15.54;50.26
69208;SHT31;56321;47.662;8.878;2023-03-31T14:12:22;15.54;50.94
69208;SHT31;56321;47.662;8.878;2023-03-31T14:14:53;15.64;51.32
69208;SHT31;56321;47.662;8.878;2023-03-31T14:17:21;15.70;51.18
69208;SHT31;56321;47.662;8.878;2023-03-31T14:28:01;15.46;51.61
69208;SHT31;56321;47.662;8.878;2023-03-31T14:33:37;15.37;51.68
69208;SHT31;56321;47.662;8.878;2023-03-31T14:39:02;15.36;52.45
69208;SHT31;56321;47.662;8.878;2023-03-31T14:41:28;15.37;52.55
69208;SHT31;56321;47.662;8.878;2023-03-31T14:43:56;15.37;52.41
69208;SHT31;56321;47.662;8.878;2023-03-31T14:46:22;15.34;52.37
69208;SHT31;56321;47.662;8.878;2023-03-31T14:48:50;15.40;52.16
69208;SHT31;56321;47.662;8.878;2023-03-31T14:51:34;15.32;49.02
69208;SHT31;56321;47.662;8.878;2023-03-31T14:54:00;15.26;50.63
69208;SHT31;56321;47.662;8.878;2023-03-31T14:56:32;15.29;50.48
69208;SHT31;56321;47.662;8.878;2023-03-31T14:59:00;15.39;50.37
69208;SHT31;56321;47.662;8.878;2023-03-31T15:01:29;15.46;49.55
69208;SHT31;56321;47.662;8.878;2023-03-31T15:04:02;15.44;48.82
69208;SHT31;56321;47.662;8.878;2023-03-31T15:06:30;15.34;50.60
69208;SHT31;56321;47.662;8.878;2023-03-31T15:09:01;14.98;53.23
69208;SHT31;56321;47.662;8.878;2023-03-31T15:11:26;14.41;54.42
69208;SHT31;56321;47.662;8.878;2023-03-31T15:13:53;13.80;56.56
69208;SHT31;56321;47.662;8.878;2023-03-31T15:16:41;13.32;60.28
69208;SHT31;56321;47.662;8.878;2023-03-31T15:19:20;12.96;61.10
69208;SHT31;56321;47.662;8.878;2023-03-31T15:21:56;12.72;61.35
69208;SHT31;56321;47.662;8.878;2023-03-31T15:24:26;12.55;61.14
69208;SHT31;56321;47.662;8.878;2023-03-31T15:26:57;12.46;61.53
69208;SHT31;56321;47.662;8.878;2023-03-31T15:29:40;12.25;63.51
69208;SHT31;56321;47.662;8.878;2023-03-31T15:32:25;12.14;63.98
69208;SHT31;56321;47.662;8.878;2023-03-31T15:34:52;12.10;63.15
69208;SHT31;56321;47.662;8.878;2023-03-31T15:37:24;12.07;63.86
69208;SHT31;56321;47.662;8.878;2023-03-31T15:39:54;12.07;63.31
69208;SHT31;56321;47.662;8.878;2023-03-31T15:42:20;12.10;63.59
69208;SHT31;56321;47.662;8.878;2023-03-31T15:44:52;12.13;63.87
69208;SHT31;56321;47.662;8.878;2023-03-31T15:47:23;12.20;64.40
69208;SHT31;56321;47.662;8.878;2023-03-31T15:49:57;12.29;64.89
69208;SHT31;56321;47.662;8.878;2023-03-31T15:52:30;12.38;64.65
69208;SHT31;56321;47.662;8.878;2023-03-31T15:54:58;12.44;64.48
69208;SHT31;56321;47.662;8.878;2023-03-31T15:57:34;12.46;63.81
69208;SHT31;56321;47.662;8.878;2023-03-31T16:00:00;12.42;63.53
69208;SHT31;56321;47.662;8.878;2023-03-31T16:02:41;12.31;63.77
69208;SHT31;56321;47.662;8.878;2023-03-31T16:05:21;12.21;64.51
69208;SHT31;56321;47.662;8.878;2023-03-31T16:07:47;12.11;64.13
69208;SHT31;56321;47.662;8.878;2023-03-31T16:10:18;12.00;63.39
69208;SHT31;56321;47.662;8.878;2023-03-31T16:13:00;11.86;64.14
69208;SHT31;56321;47.662;8.878;2023-03-31T16:15:36;11.80;64.18
69208;SHT31;56321;47.662;8.878;2023-03-31T16:18:09;11.73;63.98
69208;SHT31;56321;47.662;8.878;2023-03-31T16:20:40;11.69;63.76
69208;SHT31;56321;47.662;8.878;2023-03-31T16:23:18;11.60;63.67
69208;SHT31;56321;47.662;8.878;2023-03-31T16:25:45;11.59;63.46
69208;SHT31;56321;47.662;8.878;2023-03-31T16:28:15;11.56;63.41
69208;SHT31;56321;47.662;8.878;2023-03-31T16:30:43;11.55;63.22
69208;SHT31;56321;47.662;8.878;2023-03-31T16:33:14;11.56;63.00
69208;SHT31;56321;47.662;8.878;2023-03-31T16:35:51;11.53;61.96
69208;SHT31;56321;47.662;8.878;2023-03-31T16:38:21;11.58;62.33
69208;SHT31;56321;47.662;8.878;2023-03-31T16:40:51;11.58;60.96
69208;SHT31;56321;47.662;8.878;2023-03-31T16:46:00;11.56;59.93
69208;SHT31;56321;47.662;8.878;2023-03-31T16:48:29;11.59;60.25
69208;SHT31;56321;47.662;8.878;2023-03-31T16:50:57;11.60;59.86
69208;SHT31;56321;47.662;8.878;2023-03-31T16:53:25;11.62;59.78
69208;SHT31;56321;47.662;8.878;2023-03-31T16:55:52;11.62;59.86
69208;SHT31;56321;47.662;8.878;2023-03-31T16:58:17;11.63;59.89
69208;SHT31;56321;47.662;8.878;2023-03-31T17:00:43;11.59;59.57
69208;SHT31;56321;47.662;8.878;2023-03-31T17:03:09;11.56;59.74
69208;SHT31;56321;47.662;8.878;2023-03-31T17:05:40;11.53;60.14
69208;SHT31;56321;47.662;8.878;2023-03-31T17:08:06;11.55;60.50
69208;SHT31;56321;47.662;8.878;2023-03-31T17:10:33;11.50;60.83
69208;SHT31;56321;47.662;8.878;2023-03-31T17:12:58;11.50;61.03
69208;SHT31;56321;47.662;8.878;2023-03-31T17:15:24;11.47;61.30
69208;SHT31;56321;47.662;8.878;2023-03-31T17:17:49;11.43;61.30
69208;SHT31;56321;47.662;8.878;2023-03-31T17:20:15;11.44;61.85
69208;SHT31;56321;47.662;8.878;2023-03-31T17:22:40;11.44;61.80
69208;SHT31;56321;47.662;8.878;2023-03-31T17:25:06;11.46;61.74
69208;SHT31;56321;47.662;8.878;2023-03-31T17:27:32;11.49;61.58
69208;SHT31;56321;47.662;8.878;2023-03-31T17:29:58;11.52;61.65
69208;SHT31;56321;47.662;8.878;2023-03-31T17:32:24;11.55;61.62
69208;SHT31;56321;47.662;8.878;2023-03-31T17:34:50;11.56;61.54
69208;SHT31;56321;47.662;8.878;2023-03-31T17:37:16;11.58;61.66
69208;SHT31;56321;47.662;8.878;2023-03-31T17:39:42;11.59;61.41
69208;SHT31;56321;47.662;8.878;2023-03-31T17:42:09;11.60;61.19
69208;SHT31;56321;47.662;8.878;2023-03-31T17:44:36;11.56;61.07
69208;SHT31;56321;47.662;8.878;2023-03-31T17:47:01;11.59;61.44
69208;SHT31;56321;47.662;8.878;2023-03-31T17:49:26;11.59;61.45
69208;SHT31;56321;47.662;8.878;2023-03-31T17:51:52;11.62;61.11
69208;SHT31;56321;47.662;8.878;2023-03-31T17:54:18;11.60;61.37
69208;SHT31;56321;47.662;8.878;2023-03-31T17:56:44;11.60;61.33
69208;SHT31;56321;47.662;8.878;2023-03-31T17:59:16;11.62;61.14
69208;SHT31;56321;47.662;8.878;2023-03-31T18:01:42;11.60;61.33
69208;SHT31;56321;47.662;8.878;2023-03-31T18:04:07;11.58;60.94
69208;SHT31;56321;47.662;8.878;2023-03-31T18:06:33;11.53;61.01
69208;SHT31;56321;47.662;8.878;2023-03-31T18:08:58;11.50;61.62